Weather at Winchester Airport [CLOSED]

Public forecast

Using degrees Celsius for public forecast. Weather courtesy of forecast.io.

Closest aviation weather report (METAR) to Winchester Airport

Closest report is Massena International Richards Field, 20.5 nm (38.0 km) ESE. Retrieved 2020/10/28 21:53 UTC (58 minutes ago):

KMSS 282153Z AUTO 22009KT 10SM FEW026 BKN046 OVC085 08/04 A2988 RMK AO2 SLP122 T00780044

Closest aviation forecast (TAF) to Winchester Airport

Closest forecast is Massena International Richards Field, 20.5 nm (38.0 km) ESE. Retrieved 2020/10/28 18:22 UTC (4 hours ago):

TAF KMSS 281720Z 2818/2918 23011KT P6SM BKN060 TEMPO 2818/2820 BKN025 OVC050 FM290600 25005KT P6SM BKN060 FM291300 VRB03KT P6SM OVC035